sensor_id;sensor_type;location;lat;lon;timestamp;temperature;humidity
81192;DHT22;70665;47.652;-2.730;2023-07-31T00:01:44;19.60;81.60
81192;DHT22;70665;47.652;-2.730;2023-07-31T00:04:09;19.60;81.20
81192;DHT22;70665;47.652;-2.730;2023-07-31T00:06:35;19.50;81.60
81192;DHT22;70665;47.652;-2.730;2023-07-31T00:09:00;19.50;82.10
81192;DHT22;70665;47.652;-2.730;2023-07-31T00:11:26;19.60;79.60
81192;DHT22;70665;47.652;-2.730;2023-07-31T00:13:53;19.60;81.20
81192;DHT22;70665;47.652;-2.730;2023-07-31T00:16:19;19.60;79.80
81192;DHT22;70665;47.652;-2.730;2023-07-31T00:18:44;19.70;79.60
81192;DHT22;70665;47.652;-2.730;2023-07-31T00:21:10;19.60;80.80
81192;DHT22;70665;47.652;-2.730;2023-07-31T00:23:35;19.60;81.00
81192;DHT22;70665;47.652;-2.730;2023-07-31T00:26:01;19.60;81.50
81192;DHT22;70665;47.652;-2.730;2023-07-31T00:28:27;19.60;81.20
81192;DHT22;70665;47.652;-2.730;2023-07-31T00:30:54;19.70;80.20
81192;DHT22;70665;47.652;-2.730;2023-07-31T00:33:20;19.70;79.70
81192;DHT22;70665;47.652;-2.730;2023-07-31T00:35:45;19.70;80.50
81192;DHT22;70665;47.652;-2.730;2023-07-31T00:38:11;19.60;81.50
81192;DHT22;70665;47.652;-2.730;2023-07-31T00:40:37;19.60;82.20
81192;DHT22;70665;47.652;-2.730;2023-07-31T00:43:03;19.60;81.20
81192;DHT22;70665;47.652;-2.730;2023-07-31T00:45:29;19.60;81.20
81192;DHT22;70665;47.652;-2.730;2023-07-31T00:47:55;19.60;81.70
81192;DHT22;70665;47.652;-2.730;2023-07-31T00:50:23;19.70;81.10
81192;DHT22;70665;47.652;-2.730;2023-07-31T00:52:49;19.60;82.00
81192;DHT22;70665;47.652;-2.730;2023-07-31T00:55:15;19.60;81.50
81192;DHT22;70665;47.652;-2.730;2023-07-31T00:57:42;19.60;81.40
81192;DHT22;70665;47.652;-2.730;2023-07-31T01:00:08;19.60;81.70
81192;DHT22;70665;47.652;-2.730;2023-07-31T01:02:35;19.60;81.20
81192;DHT22;70665;47.652;-2.730;2023-07-31T01:05:02;19.70;81.30
81192;DHT22;70665;47.652;-2.730;2023-07-31T01:07:50;19.60;82.70
81192;DHT22;70665;47.652;-2.730;2023-07-31T01:10:30;19.60;82.30
81192;DHT22;70665;47.652;-2.730;2023-07-31T01:12:57;19.70;82.00
81192;DHT22;70665;47.652;-2.730;2023-07-31T01:15:23;19.70;82.00
81192;DHT22;70665;47.652;-2.730;2023-07-31T01:17:48;19.50;82.70
81192;DHT22;70665;47.652;-2.730;2023-07-31T01:20:22;19.50;83.40
81192;DHT22;70665;47.652;-2.730;2023-07-31T01:29:03;19.50;84.40
81192;DHT22;70665;47.652;-2.730;2023-07-31T01:31:32;19.50;82.90
81192;DHT22;70665;47.652;-2.730;2023-07-31T01:34:01;19.40;84.40
81192;DHT22;70665;47.652;-2.730;2023-07-31T01:36:27;19.50;82.60
81192;DHT22;70665;47.652;-2.730;2023-07-31T01:38:58;19.50;84.50
81192;DHT22;70665;47.652;-2.730;2023-07-31T01:41:24;19.60;83.50
81192;DHT22;70665;47.652;-2.730;2023-07-31T01:43:50;19.50;83.60
81192;DHT22;70665;47.652;-2.730;2023-07-31T01:46:15;19.50;83.60
81192;DHT22;70665;47.652;-2.730;2023-07-31T01:48:41;19.50;83.90
81192;DHT22;70665;47.652;-2.730;2023-07-31T01:51:07;19.50;84.00
81192;DHT22;70665;47.652;-2.730;2023-07-31T01:53:32;19.60;83.50
81192;DHT22;70665;47.652;-2.730;2023-07-31T01:55:58;19.50;83.30
81192;DHT22;70665;47.652;-2.730;2023-07-31T01:58:24;19.60;83.40
81192;DHT22;70665;47.652;-2.730;2023-07-31T02:00:50;19.50;84.30
81192;DHT22;70665;47.652;-2.730;2023-07-31T02:03:15;19.50;84.30
81192;DHT22;70665;47.652;-2.730;2023-07-31T02:05:48;19.50;84.70
81192;DHT22;70665;47.652;-2.730;2023-07-31T02:08:14;19.60;83.70
81192;DHT22;70665;47.652;-2.730;2023-07-31T02:10:39;19.60;83.50
81192;DHT22;70665;47.652;-2.730;2023-07-31T02:13:05;19.60;83.00
81192;DHT22;70665;47.652;-2.730;2023-07-31T02:15:31;19.50;82.40
81192;DHT22;70665;47.652;-2.730;2023-07-31T02:17:57;19.60;84.00
81192;DHT22;70665;47.652;-2.730;2023-07-31T02:20:23;19.60;82.10
81192;DHT22;70665;47.652;-2.730;2023-07-31T02:22:49;19.60;83.50
81192;DHT22;70665;47.652;-2.730;2023-07-31T02:25:15;19.50;84.00
81192;DHT22;70665;47.652;-2.730;2023-07-31T02:27:40;19.50;84.60
81192;DHT22;70665;47.652;-2.730;2023-07-31T02:30:06;19.60;83.00
81192;DHT22;70665;47.652;-2.730;2023-07-31T02:32:32;19.50;84.50
81192;DHT22;70665;47.652;-2.730;2023-07-31T02:34:58;19.50;84.10
81192;DHT22;70665;47.652;-2.730;2023-07-31T02:37:24;19.50;84.10
81192;DHT22;70665;47.652;-2.730;2023-07-31T02:39:50;19.50;84.00
81192;DHT22;70665;47.652;-2.730;2023-07-31T02:42:16;19.60;82.70
81192;DHT22;70665;47.652;-2.730;2023-07-31T02:44:41;19.60;82.90
81192;DHT22;70665;47.652;-2.730;2023-07-31T02:47:07;19.60;83.60
81192;DHT22;70665;47.652;-2.730;2023-07-31T02:49:32;19.60;84.10
81192;DHT22;70665;47.652;-2.730;2023-07-31T02:51:58;19.60;84.60
81192;DHT22;70665;47.652;-2.730;2023-07-31T02:54:23;19.60;84.70
81192;DHT22;70665;47.652;-2.730;2023-07-31T02:56:49;19.50;84.30
81192;DHT22;70665;47.652;-2.730;2023-07-31T02:59:15;19.50;84.60
81192;DHT22;70665;47.652;-2.730;2023-07-31T03:01:40;19.50;84.40
81192;DHT22;70665;47.652;-2.730;2023-07-31T03:04:07;19.50;84.00
81192;DHT22;70665;47.652;-2.730;2023-07-31T03:06:32;19.60;82.80
81192;DHT22;70665;47.652;-2.730;2023-07-31T03:08:58;19.60;84.60
81192;DHT22;70665;47.652;-2.730;2023-07-31T03:11:24;19.60;84.20
81192;DHT22;70665;47.652;-2.730;2023-07-31T03:13:49;19.50;84.80
81192;DHT22;70665;47.652;-2.730;2023-07-31T03:16:15;19.60;83.70
81192;DHT22;70665;47.652;-2.730;2023-07-31T03:18:40;19.50;85.00
81192;DHT22;70665;47.652;-2.730;2023-07-31T03:21:06;19.60;84.30
81192;DHT22;70665;47.652;-2.730;2023-07-31T03:23:32;19.60;83.30
81192;DHT22;70665;47.652;-2.730;2023-07-31T03:25:58;19.50;82.40
81192;DHT22;70665;47.652;-2.730;2023-07-31T03:28:24;19.60;84.30
81192;DHT22;70665;47.652;-2.730;2023-07-31T03:30:51;19.60;85.40
81192;DHT22;70665;47.652;-2.730;2023-07-31T03:33:17;19.70;85.00
81192;DHT22;70665;47.652;-2.730;2023-07-31T03:35:42;19.70;84.60
81192;DHT22;70665;47.652;-2.730;2023-07-31T03:38:08;19.60;85.60
81192;DHT22;70665;47.652;-2.730;2023-07-31T03:40:34;19.70;83.50
81192;DHT22;70665;47.652;-2.730;2023-07-31T03:42:59;19.70;85.20
81192;DHT22;70665;47.652;-2.730;2023-07-31T03:45:25;19.60;84.90
81192;DHT22;70665;47.652;-2.730;2023-07-31T03:47:50;19.60;85.10
81192;DHT22;70665;47.652;-2.730;2023-07-31T03:50:16;19.70;85.10
81192;DHT22;70665;47.652;-2.730;2023-07-31T03:52:42;19.60;84.60
81192;DHT22;70665;47.652;-2.730;2023-07-31T03:55:08;19.70;83.80
81192;DHT22;70665;47.652;-2.730;2023-07-31T03:57:33;19.70;83.70
81192;DHT22;70665;47.652;-2.730;2023-07-31T03:59:59;19.70;85.80
81192;DHT22;70665;47.652;-2.730;2023-07-31T04:02:25;19.70;84.20
81192;DHT22;70665;47.652;-2.730;2023-07-31T04:04:50;19.70;85.60
81192;DHT22;70665;47.652;-2.730;2023-07-31T04:07:16;19.60;85.30
81192;DHT22;70665;47.652;-2.730;2023-07-31T04:09:41;19.60;85.70
81192;DHT22;70665;47.652;-2.730;2023-07-31T04:12:07;19.60;84.90
81192;DHT22;70665;47.652;-2.730;2023-07-31T04:14:33;19.60;85.30
81192;DHT22;70665;47.652;-2.730;2023-07-31T04:16:58;19.60;84.50
81192;DHT22;70665;47.652;-2.730;2023-07-31T04:19:24;19.60;85.60
81192;DHT22;70665;47.652;-2.730;2023-07-31T04:21:50;19.60;85.40
81192;DHT22;70665;47.652;-2.730;2023-07-31T04:24:15;19.60;85.90
81192;DHT22;70665;47.652;-2.730;2023-07-31T04:26:41;19.70;85.60
81192;DHT22;70665;47.652;-2.730;2023-07-31T04:29:07;19.60;84.50
81192;DHT22;70665;47.652;-2.730;2023-07-31T04:31:33;19.60;85.50
81192;DHT22;70665;47.652;-2.730;2023-07-31T04:33:59;19.60;85.70
81192;DHT22;70665;47.652;-2.730;2023-07-31T04:36:24;19.70;84.50
81192;DHT22;70665;47.652;-2.730;2023-07-31T04:38:50;19.60;85.50
81192;DHT22;70665;47.652;-2.730;2023-07-31T04:41:16;19.70;85.80
81192;DHT22;70665;47.652;-2.730;2023-07-31T04:43:41;19.70;83.70
81192;DHT22;70665;47.652;-2.730;2023-07-31T04:46:07;19.60;85.50
81192;DHT22;70665;47.652;-2.730;2023-07-31T04:48:32;19.70;84.20
81192;DHT22;70665;47.652;-2.730;2023-07-31T04:50:58;19.60;85.00
81192;DHT22;70665;47.652;-2.730;2023-07-31T04:53:24;19.60;85.70
81192;DHT22;70665;47.652;-2.730;2023-07-31T04:55:49;19.60;85.60
81192;DHT22;70665;47.652;-2.730;2023-07-31T04:58:15;19.60;84.90
81192;DHT22;70665;47.652;-2.730;2023-07-31T05:00:41;19.70;85.60
81192;DHT22;70665;47.652;-2.730;2023-07-31T05:03:06;19.60;85.20
81192;DHT22;70665;47.652;-2.730;2023-07-31T05:05:32;19.60;85.50
81192;DHT22;70665;47.652;-2.730;2023-07-31T05:07:58;19.70;84.90
81192;DHT22;70665;47.652;-2.730;2023-07-31T05:10:24;19.60;84.50
81192;DHT22;70665;47.652;-2.730;2023-07-31T05:12:49;19.60;85.20
81192;DHT22;70665;47.652;-2.730;2023-07-31T05:15:15;19.70;84.20
81192;DHT22;70665;47.652;-2.730;2023-07-31T05:17:40;19.70;84.20
81192;DHT22;70665;47.652;-2.730;2023-07-31T05:20:07;19.80;82.90
81192;DHT22;70665;47.652;-2.730;2023-07-31T05:22:32;19.80;83.90
81192;DHT22;70665;47.652;-2.730;2023-07-31T05:24:58;19.80;83.40
81192;DHT22;70665;47.652;-2.730;2023-07-31T05:27:24;19.80;85.00
81192;DHT22;70665;47.652;-2.730;2023-07-31T05:29:49;19.80;84.30
81192;DHT22;70665;47.652;-2.730;2023-07-31T05:32:15;19.90;83.10
81192;DHT22;70665;47.652;-2.730;2023-07-31T05:34:41;19.90;84.70
81192;DHT22;70665;47.652;-2.730;2023-07-31T05:37:06;20.00;84.30
81192;DHT22;70665;47.652;-2.730;2023-07-31T05:39:32;19.80;84.30
81192;DHT22;70665;47.652;-2.730;2023-07-31T05:41:57;19.90;84.20
81192;DHT22;70665;47.652;-2.730;2023-07-31T05:44:23;20.00;84.10
81192;DHT22;70665;47.652;-2.730;2023-07-31T05:46:48;19.90;83.40
81192;DHT22;70665;47.652;-2.730;2023-07-31T05:49:14;20.00;83.80
81192;DHT22;70665;47.652;-2.730;2023-07-31T05:51:40;20.00;83.70
81192;DHT22;70665;47.652;-2.730;2023-07-31T05:54:05;20.00;83.10
81192;DHT22;70665;47.652;-2.730;2023-07-31T05:56:31;20.10;83.30
81192;DHT22;70665;47.652;-2.730;2023-07-31T05:58:58;20.10;83.70
81192;DHT22;70665;47.652;-2.730;2023-07-31T06:01:24;20.00;84.30
81192;DHT22;70665;47.652;-2.730;2023-07-31T06:03:50;20.10;82.80
81192;DHT22;70665;47.652;-2.730;2023-07-31T06:06:15;20.00;84.30
81192;DHT22;70665;47.652;-2.730;2023-07-31T06:08:41;20.00;83.30
81192;DHT22;70665;47.652;-2.730;2023-07-31T06:11:07;20.10;83.50
81192;DHT22;70665;47.652;-2.730;2023-07-31T06:13:34;20.20;83.20
81192;DHT22;70665;47.652;-2.730;2023-07-31T06:16:00;20.10;82.60
81192;DHT22;70665;47.652;-2.730;2023-07-31T06:18:31;20.20;83.80
81192;DHT22;70665;47.652;-2.730;2023-07-31T06:20:56;20.20;83.40
81192;DHT22;70665;47.652;-2.730;2023-07-31T06:23:22;20.20;83.50
81192;DHT22;70665;47.652;-2.730;2023-07-31T06:25:48;20.30;83.40
81192;DHT22;70665;47.652;-2.730;2023-07-31T06:28:13;20.30;83.20
81192;DHT22;70665;47.652;-2.730;2023-07-31T06:30:39;20.40;84.00
81192;DHT22;70665;47.652;-2.730;2023-07-31T06:33:05;20.10;85.40
81192;DHT22;70665;47.652;-2.730;2023-07-31T06:35:30;20.10;85.40
81192;DHT22;70665;47.652;-2.730;2023-07-31T06:37:56;20.00;85.80
81192;DHT22;70665;47.652;-2.730;2023-07-31T06:40:22;19.90;85.20
81192;DHT22;70665;47.652;-2.730;2023-07-31T06:42:47;19.90;85.40
81192;DHT22;70665;47.652;-2.730;2023-07-31T06:45:13;20.00;86.80
81192;DHT22;70665;47.652;-2.730;2023-07-31T06:47:38;20.00;85.40
81192;DHT22;70665;47.652;-2.730;2023-07-31T06:50:05;20.00;84.90
81192;DHT22;70665;47.652;-2.730;2023-07-31T06:52:30;20.00;86.00
81192;DHT22;70665;47.652;-2.730;2023-07-31T06:57:29;19.80;86.10
81192;DHT22;70665;47.652;-2.730;2023-07-31T06:59:54;19.90;85.30
81192;DHT22;70665;47.652;-2.730;2023-07-31T07:02:20;20.00;86.40
81192;DHT22;70665;47.652;-2.730;2023-07-31T07:04:46;20.00;86.60
81192;DHT22;70665;47.652;-2.730;2023-07-31T07:07:11;20.00;86.40
81192;DHT22;70665;47.652;-2.730;2023-07-31T07:09:37;19.90;87.00
81192;DHT22;70665;47.652;-2.730;2023-07-31T07:12:03;20.00;86.90
81192;DHT22;70665;47.652;-2.730;2023-07-31T07:14:28;20.00;87.10
81192;DHT22;70665;47.652;-2.730;2023-07-31T07:16:54;20.00;86.60
81192;DHT22;70665;47.652;-2.730;2023-07-31T07:19:19;20.00;87.50
81192;DHT22;70665;47.652;-2.730;2023-07-31T07:21:45;19.80;88.20
81192;DHT22;70665;47.652;-2.730;2023-07-31T07:24:10;19.90;87.70
81192;DHT22;70665;47.652;-2.730;2023-07-31T07:26:36;19.90;88.20
81192;DHT22;70665;47.652;-2.730;2023-07-31T07:29:02;19.90;88.60
81192;DHT22;70665;47.652;-2.730;2023-07-31T07:31:28;19.90;88.70
81192;DHT22;70665;47.652;-2.730;2023-07-31T07:33:54;19.80;87.80
81192;DHT22;70665;47.652;-2.730;2023-07-31T07:36:19;19.90;88.70
81192;DHT22;70665;47.652;-2.730;2023-07-31T07:38:45;19.90;87.30
81192;DHT22;70665;47.652;-2.730;2023-07-31T07:41:11;19.80;88.80
81192;DHT22;70665;47.652;-2.730;2023-07-31T07:43:36;19.90;87.70
81192;DHT22;70665;47.652;-2.730;2023-07-31T07:46:02;19.90;87.30
81192;DHT22;70665;47.652;-2.730;2023-07-31T07:48:27;19.90;87.40
81192;DHT22;70665;47.652;-2.730;2023-07-31T07:50:53;19.90;88.20
81192;DHT22;70665;47.652;-2.730;2023-07-31T07:53:19;19.80;88.50
81192;DHT22;70665;47.652;-2.730;2023-07-31T07:55:44;19.90;88.80
81192;DHT22;70665;47.652;-2.730;2023-07-31T07:58:10;20.00;88.00
81192;DHT22;70665;47.652;-2.730;2023-07-31T08:00:35;19.90;88.30
81192;DHT22;70665;47.652;-2.730;2023-07-31T08:03:01;20.00;87.60
81192;DHT22;70665;47.652;-2.730;2023-07-31T08:05:27;20.10;87.10
81192;DHT22;70665;47.652;-2.730;2023-07-31T08:07:52;20.10;87.80
81192;DHT22;70665;47.652;-2.730;2023-07-31T08:10:18;20.20;87.50
81192;DHT22;70665;47.652;-2.730;2023-07-31T08:12:43;20.20;87.10
81192;DHT22;70665;47.652;-2.730;2023-07-31T08:15:09;20.20;87.10
81192;DHT22;70665;47.652;-2.730;2023-07-31T08:17:35;20.30;86.90
81192;DHT22;70665;47.652;-2.730;2023-07-31T08:20:00;20.30;87.10
81192;DHT22;70665;47.652;-2.730;2023-07-31T08:22:26;20.40;86.90
81192;DHT22;70665;47.652;-2.730;2023-07-31T08:24:52;20.40;86.20
81192;DHT22;70665;47.652;-2.730;2023-07-31T08:27:17;20.40;86.50
81192;DHT22;70665;47.652;-2.730;2023-07-31T08:29:43;20.50;86.20
81192;DHT22;70665;47.652;-2.730;2023-07-31T08:32:08;20.50;85.80
81192;DHT22;70665;47.652;-2.730;2023-07-31T08:34:34;20.70;85.40
81192;DHT22;70665;47.652;-2.730;2023-07-31T08:36:59;20.80;85.30
81192;DHT22;70665;47.652;-2.730;2023-07-31T08:39:25;20.70;85.40
81192;DHT22;70665;47.652;-2.730;2023-07-31T08:41:51;20.70;85.40
81192;DHT22;70665;47.652;-2.730;2023-07-31T08:44:17;20.70;85.60
81192;DHT22;70665;47.652;-2.730;2023-07-31T08:46:44;20.60;85.50
81192;DHT22;70665;47.652;-2.730;2023-07-31T08:49:10;20.60;85.50
81192;DHT22;70665;47.652;-2.730;2023-07-31T08:51:36;20.60;86.10
81192;DHT22;70665;47.652;-2.730;2023-07-31T08:54:02;20.70;84.30
81192;DHT22;70665;47.652;-2.730;2023-07-31T08:56:29;20.80;84.00
81192;DHT22;70665;47.652;-2.730;2023-07-31T08:58:58;20.90;84.20
81192;DHT22;70665;47.652;-2.730;2023-07-31T09:01:24;20.80;84.30
81192;DHT22;70665;47.652;-2.730;2023-07-31T09:03:51;20.80;84.70
81192;DHT22;70665;47.652;-2.730;2023-07-31T09:06:18;21.00;84.40
81192;DHT22;70665;47.652;-2.730;2023-07-31T09:08:46;20.80;84.80
81192;DHT22;70665;47.652;-2.730;2023-07-31T09:11:12;20.80;84.90
81192;DHT22;70665;47.652;-2.730;2023-07-31T09:13:39;20.90;84.10
81192;DHT22;70665;47.652;-2.730;2023-07-31T09:16:05;21.00;84.00
81192;DHT22;70665;47.652;-2.730;2023-07-31T09:18:31;21.10;83.50
81192;DHT22;70665;47.652;-2.730;2023-07-31T09:21:03;21.10;83.90
81192;DHT22;70665;47.652;-2.730;2023-07-31T09:23:43;21.00;84.20
81192;DHT22;70665;47.652;-2.730;2023-07-31T09:26:09;20.80;84.50
81192;DHT22;70665;47.652;-2.730;2023-07-31T09:28:36;20.90;84.60
81192;DHT22;70665;47.652;-2.730;2023-07-31T09:31:01;20.80;85.00
81192;DHT22;70665;47.652;-2.730;2023-07-31T09:33:27;20.90;83.90
81192;DHT22;70665;47.652;-2.730;2023-07-31T09:35:52;21.00;84.80
81192;DHT22;70665;47.652;-2.730;2023-07-31T09:38:18;21.10;84.60
81192;DHT22;70665;47.652;-2.730;2023-07-31T09:40:46;21.10;84.60
81192;DHT22;70665;47.652;-2.730;2023-07-31T09:43:22;21.10;85.10
81192;DHT22;70665;47.652;-2.730;2023-07-31T09:45:48;20.90;85.60
81192;DHT22;70665;47.652;-2.730;2023-07-31T09:48:19;20.90;85.30
81192;DHT22;70665;47.652;-2.730;2023-07-31T09:50:46;20.90;85.90
81192;DHT22;70665;47.652;-2.730;2023-07-31T09:53:13;21.00;85.60
81192;DHT22;70665;47.652;-2.730;2023-07-31T09:55:40;20.90;85.50
81192;DHT22;70665;47.652;-2.730;2023-07-31T09:58:10;20.90;86.00
81192;DHT22;70665;47.652;-2.730;2023-07-31T10:00:36;20.80;86.20
81192;DHT22;70665;47.652;-2.730;2023-07-31T10:03:08;21.00;86.20
81192;DHT22;70665;47.652;-2.730;2023-07-31T10:05:36;20.90;85.80
81192;DHT22;70665;47.652;-2.730;2023-07-31T10:08:03;20.90;85.90
81192;DHT22;70665;47.652;-2.730;2023-07-31T10:10:29;20.90;86.00
81192;DHT22;70665;47.652;-2.730;2023-07-31T10:12:56;20.90;86.30
81192;DHT22;70665;47.652;-2.730;2023-07-31T10:15:23;20.80;87.30
81192;DHT22;70665;47.652;-2.730;2023-07-31T10:17:50;20.90;87.10
81192;DHT22;70665;47.652;-2.730;2023-07-31T10:20:16;20.80;87.40
81192;DHT22;70665;47.652;-2.730;2023-07-31T10:22:43;20.80;88.30
81192;DHT22;70665;47.652;-2.730;2023-07-31T10:25:09;21.00;87.30
81192;DHT22;70665;47.652;-2.730;2023-07-31T10:27:36;20.80;88.30
81192;DHT22;70665;47.652;-2.730;2023-07-31T10:30:03;20.80;87.00
81192;DHT22;70665;47.652;-2.730;2023-07-31T10:32:30;20.80;88.30
81192;DHT22;70665;47.652;-2.730;2023-07-31T10:34:56;21.00;88.10
81192;DHT22;70665;47.652;-2.730;2023-07-31T10:37:29;21.00;88.00
81192;DHT22;70665;47.652;-2.730;2023-07-31T10:40:00;21.00;87.40
81192;DHT22;70665;47.652;-2.730;2023-07-31T10:45:14;21.10;86.90
81192;DHT22;70665;47.652;-2.730;2023-07-31T10:47:44;21.10;87.00
81192;DHT22;70665;47.652;-2.730;2023-07-31T10:50:17;21.40;86.20
81192;DHT22;70665;47.652;-2.730;2023-07-31T10:52:48;21.50;85.80
81192;DHT22;70665;47.652;-2.730;2023-07-31T10:55:16;21.50;85.60
81192;DHT22;70665;47.652;-2.730;2023-07-31T10:57:47;21.40;85.90
81192;DHT22;70665;47.652;-2.730;2023-07-31T11:00:27;21.30;87.40
81192;DHT22;70665;47.652;-2.730;2023-07-31T11:03:03;21.00;88.00
81192;DHT22;70665;47.652;-2.730;2023-07-31T11:08:28;20.80;88.90
81192;DHT22;70665;47.652;-2.730;2023-07-31T11:15:55;20.80;89.10
81192;DHT22;70665;47.652;-2.730;2023-07-31T11:18:20;20.80;89.30
81192;DHT22;70665;47.652;-2.730;2023-07-31T11:20:46;20.70;89.00
81192;DHT22;70665;47.652;-2.730;2023-07-31T11:23:16;20.70;89.60
81192;DHT22;70665;47.652;-2.730;2023-07-31T11:25:42;20.70;88.70
81192;DHT22;70665;47.652;-2.730;2023-07-31T11:28:12;20.80;89.30
81192;DHT22;70665;47.652;-2.730;2023-07-31T11:30:39;21.00;88.00
81192;DHT22;70665;47.652;-2.730;2023-07-31T11:33:10;21.00;88.70
81192;DHT22;70665;47.652;-2.730;2023-07-31T11:38:09;20.70;89.20
81192;DHT22;70665;47.652;-2.730;2023-07-31T11:40:44;20.70;90.00
81192;DHT22;70665;47.652;-2.730;2023-07-31T11:43:10;20.60;89.60
81192;DHT22;70665;47.652;-2.730;2023-07-31T11:45:39;20.70;89.60
81192;DHT22;70665;47.652;-2.730;2023-07-31T11:48:05;20.80;89.40
81192;DHT22;70665;47.652;-2.730;2023-07-31T11:50:33;20.70;89.60
81192;DHT22;70665;47.652;-2.730;2023-07-31T11:53:06;20.80;89.20
81192;DHT22;70665;47.652;-2.730;2023-07-31T11:55:33;20.90;89.40
81192;DHT22;70665;47.652;-2.730;2023-07-31T11:57:59;20.90;89.50
81192;DHT22;70665;47.652;-2.730;2023-07-31T12:00:26;20.80;89.20
81192;DHT22;70665;47.652;-2.730;2023-07-31T12:02:53;21.00;89.30
81192;DHT22;70665;47.652;-2.730;2023-07-31T12:05:19;20.90;89.40
81192;DHT22;70665;47.652;-2.730;2023-07-31T12:07:50;20.90;89.80
81192;DHT22;70665;47.652;-2.730;2023-07-31T12:10:32;20.80;90.20
81192;DHT22;70665;47.652;-2.730;2023-07-31T12:13:08;20.70;90.30
81192;DHT22;70665;47.652;-2.730;2023-07-31T12:15:40;20.80;89.50
81192;DHT22;70665;47.652;-2.730;2023-07-31T12:18:07;20.60;90.00
81192;DHT22;70665;47.652;-2.730;2023-07-31T12:20:34;20.50;90.10
81192;DHT22;70665;47.652;-2.730;2023-07-31T12:22:59;20.30;90.70
81192;DHT22;70665;47.652;-2.730;2023-07-31T12:25:34;20.50;90.60
81192;DHT22;70665;47.652;-2.730;2023-07-31T12:28:05;20.60;89.60
81192;DHT22;70665;47.652;-2.730;2023-07-31T12:30:34;20.50;90.00
81192;DHT22;70665;47.652;-2.730;2023-07-31T12:33:32;20.50;90.40
81192;DHT22;70665;47.652;-2.730;2023-07-31T12:36:01;20.50;90.50
81192;DHT22;70665;47.652;-2.730;2023-07-31T12:38:27;20.50;89.70
81192;DHT22;70665;47.652;-2.730;2023-07-31T12:40:52;20.50;90.20
81192;DHT22;70665;47.652;-2.730;2023-07-31T12:43:18;20.40;89.80
81192;DHT22;70665;47.652;-2.730;2023-07-31T12:45:43;20.40;90.50
81192;DHT22;70665;47.652;-2.730;2023-07-31T12:48:09;20.40;90.70
81192;DHT22;70665;47.652;-2.730;2023-07-31T12:50:35;20.40;90.60
81192;DHT22;70665;47.652;-2.730;2023-07-31T12:53:02;20.30;90.20
81192;DHT22;70665;47.652;-2.730;2023-07-31T12:55:31;20.40;90.50
81192;DHT22;70665;47.652;-2.730;2023-07-31T12:57:58;20.30;90.10
81192;DHT22;70665;47.652;-2.730;2023-07-31T13:00:23;20.40;89.60
81192;DHT22;70665;47.652;-2.730;2023-07-31T13:02:49;20.50;89.60
81192;DHT22;70665;47.652;-2.730;2023-07-31T13:05:15;20.50;89.80
81192;DHT22;70665;47.652;-2.730;2023-07-31T13:07:40;20.50;89.80
81192;DHT22;70665;47.652;-2.730;2023-07-31T13:10:07;20.50;89.50
81192;DHT22;70665;47.652;-2.730;2023-07-31T13:12:33;20.60;89.00
81192;DHT22;70665;47.652;-2.730;2023-07-31T13:14:59;20.50;89.20
81192;DHT22;70665;47.652;-2.730;2023-07-31T13:17:25;20.60;89.40
81192;DHT22;70665;47.652;-2.730;2023-07-31T13:19:50;20.70;89.10
81192;DHT22;70665;47.652;-2.730;2023-07-31T13:22:16;20.50;89.00
81192;DHT22;70665;47.652;-2.730;2023-07-31T13:24:42;20.60;89.20
81192;DHT22;70665;47.652;-2.730;2023-07-31T13:27:07;20.50;89.70
81192;DHT22;70665;47.652;-2.730;2023-07-31T13:29:33;20.50;90.00
81192;DHT22;70665;47.652;-2.730;2023-07-31T13:31:59;20.50;90.00
81192;DHT22;70665;47.652;-2.730;2023-07-31T13:34:24;20.40;90.20
81192;DHT22;70665;47.652;-2.730;2023-07-31T13:36:50;20.40;91.20
81192;DHT22;70665;47.652;-2.730;2023-07-31T13:39:15;20.20;91.10
81192;DHT22;70665;47.652;-2.730;2023-07-31T13:41:41;20.20;91.10
81192;DHT22;70665;47.652;-2.730;2023-07-31T13:44:07;20.20;91.50
81192;DHT22;70665;47.652;-2.730;2023-07-31T13:46:32;20.20;91.40
81192;DHT22;70665;47.652;-2.730;2023-07-31T13:49:01;20.20;91.60
81192;DHT22;70665;47.652;-2.730;2023-07-31T13:51:27;20.10;91.80
81192;DHT22;70665;47.652;-2.730;2023-07-31T13:53:53;20.10;91.90
81192;DHT22;70665;47.652;-2.730;2023-07-31T13:56:19;20.10;92.10
81192;DHT22;70665;47.652;-2.730;2023-07-31T13:58:45;20.20;90.80
81192;DHT22;70665;47.652;-2.730;2023-07-31T14:01:10;20.10;91.20
81192;DHT22;70665;47.652;-2.730;2023-07-31T14:03:36;20.20;91.20
81192;DHT22;70665;47.652;-2.730;2023-07-31T14:06:02;20.30;90.80
81192;DHT22;70665;47.652;-2.730;2023-07-31T14:08:27;20.20;90.90
81192;DHT22;70665;47.652;-2.730;2023-07-31T14:10:53;20.30;90.40
81192;DHT22;70665;47.652;-2.730;2023-07-31T14:13:19;20.40;90.30
81192;DHT22;70665;47.652;-2.730;2023-07-31T14:15:44;20.40;90.70
81192;DHT22;70665;47.652;-2.730;2023-07-31T14:18:10;20.30;90.40
81192;DHT22;70665;47.652;-2.730;2023-07-31T14:20:36;20.40;90.40
81192;DHT22;70665;47.652;-2.730;2023-07-31T14:23:04;20.40;91.10
81192;DHT22;70665;47.652;-2.730;2023-07-31T14:25:30;20.40;91.00
81192;DHT22;70665;47.652;-2.730;2023-07-31T14:27:56;20.30;90.90
81192;DHT22;70665;47.652;-2.730;2023-07-31T14:30:21;20.20;91.30
81192;DHT22;70665;47.652;-2.730;2023-07-31T14:32:47;20.20;91.40
81192;DHT22;70665;47.652;-2.730;2023-07-31T14:35:13;20.30;91.60
81192;DHT22;70665;47.652;-2.730;2023-07-31T14:37:43;20.30;91.60
81192;DHT22;70665;47.652;-2.730;2023-07-31T14:40:10;20.30;91.20
81192;DHT22;70665;47.652;-2.730;2023-07-31T14:42:36;20.30;91.40
81192;DHT22;70665;47.652;-2.730;2023-07-31T14:45:03;20.20;91.70
81192;DHT22;70665;47.652;-2.730;2023-07-31T14:47:28;20.30;91.30
81192;DHT22;70665;47.652;-2.730;2023-07-31T14:49:56;20.30;91.10
81192;DHT22;70665;47.652;-2.730;2023-07-31T14:52:22;20.20;91.50
81192;DHT22;70665;47.652;-2.730;2023-07-31T14:54:47;20.20;91.10
81192;DHT22;70665;47.652;-2.730;2023-07-31T14:57:13;20.30;91.70
81192;DHT22;70665;47.652;-2.730;2023-07-31T14:59:38;20.30;91.20
81192;DHT22;70665;47.652;-2.730;2023-07-31T15:02:05;20.40;91.20
81192;DHT22;70665;47.652;-2.730;2023-07-31T15:04:31;20.40;90.90
81192;DHT22;70665;47.652;-2.730;2023-07-31T15:06:56;20.40;90.70
81192;DHT22;70665;47.652;-2.730;2023-07-31T15:09:22;20.40;91.20
81192;DHT22;70665;47.652;-2.730;2023-07-31T15:11:48;20.40;91.40
81192;DHT22;70665;47.652;-2.730;2023-07-31T15:14:13;20.50;91.30
81192;DHT22;70665;47.652;-2.730;2023-07-31T15:16:39;20.50;91.10
81192;DHT22;70665;47.652;-2.730;2023-07-31T15:19:04;20.40;91.30
81192;DHT22;70665;47.652;-2.730;2023-07-31T15:21:30;20.40;90.90
81192;DHT22;70665;47.652;-2.730;2023-07-31T15:23:56;20.40;91.10
81192;DHT22;70665;47.652;-2.730;2023-07-31T15:26:21;20.30;91.00
81192;DHT22;70665;47.652;-2.730;2023-07-31T15:28:50;20.50;90.70
81192;DHT22;70665;47.652;-2.730;2023-07-31T15:31:20;20.60;90.00
81192;DHT22;70665;47.652;-2.730;2023-07-31T15:33:47;20.70;90.00